Terminal Aerodrome Forecast
Issued by NWS

Home | Current Version | Previous Version | Text Only | Print | Product List | Glossary On
Versions: 1 2 3 4 5 6 7 8 9 10 11 12 13 14 15 16 17 18 19
000
FTUS43 KDTX 020526
TAFMBS
TAF
KMBS 020526Z 0206/0306 05007KT P6SM BKN025 OVC040
     FM021300 05007KT P6SM BKN040
     FM021600 05007KT P6SM SCT050
     FM030100 04005KT P6SM SKC=

USA.gov is the U.S. government's official web portal to all federal, state and local government web resources and services.